VLG39CR LEGR-GCRR
Flight info
| Callsign | VLG39CR |
|---|---|
| Flight time | 2h 5m |
| Altitude | 35000 |
| Route | MAR L27 VJF L82 RUNAX/N0456F360 DCT KORNO/N0456F350 DCT IBALU UN857 TERTO |
| Aircraft | A320/M-SDE3FGHIRWY/LB1 |
Departure
| Time | 2026-05-01 10:46 |
|---|---|
| Airport | F.G.L. Airport Granada-Jaén Airport (LEGR) |
Arrival
| Time | 2026-05-01 12:52 |
|---|---|
| Airport | César Manrique-Lanzarote Airport (GCRR) |
| Time | Latitude | Longitude | Altitude | Speed | Heading |
|---|---|---|---|---|---|
| 2026-05-01 10:37 | 37.18567 | -3.77685 | 1871 ft | 0 kts | 269° |
| 2026-05-01 10:41 | 37.18567 | -3.77689 | 1871 ft | 1 kts | 269° |
| 2026-05-01 10:42 | 37.18567 | -3.77712 | 1871 ft | 4 kts | 269° |
| 2026-05-01 10:42 | 37.18578 | -3.77752 | 1869 ft | 6 kts | 320° |
| 2026-05-01 10:42 | 37.18633 | -3.77759 | 1869 ft | 10 kts | 360° |
| 2026-05-01 10:42 | 37.18705 | -3.77789 | 1868 ft | 12 kts | 300° |
| 2026-05-01 10:43 | 37.18707 | -3.77898 | 1867 ft | 13 kts | 270° |
| 2026-05-01 10:43 | 37.18707 | -3.78027 | 1867 ft | 16 kts | 269° |
| 2026-05-01 10:43 | 37.18704 | -3.78183 | 1868 ft | 19 kts | 269° |
| 2026-05-01 10:43 | 37.18705 | -3.78353 | 1866 ft | 20 kts | 270° |
| 2026-05-01 10:44 | 37.18702 | -3.78536 | 1866 ft | 23 kts | 270° |
| 2026-05-01 10:44 | 37.18704 | -3.78740 | 1865 ft | 24 kts | 262° |
| 2026-05-01 10:44 | 37.18698 | -3.78951 | 1869 ft | 25 kts | 269° |
| 2026-05-01 10:44 | 37.18697 | -3.79181 | 1867 ft | 27 kts | 269° |
| 2026-05-01 10:45 | 37.18752 | -3.79327 | 1867 ft | 18 kts | 356° |
| 2026-05-01 10:45 | 37.18862 | -3.79295 | 1864 ft | 12 kts | 62° |
| 2026-05-01 10:45 | 37.18865 | -3.79040 | 1870 ft | 62 kts | 90° |
| 2026-05-01 10:45 | 37.18869 | -3.78238 | 1870 ft | 119 kts | 90° |
| 2026-05-01 10:46 | 37.18868 | -3.77007 | 1893 ft | 159 kts | 90° |
| 2026-05-01 10:46 | 37.18881 | -3.75653 | 2543 ft | 150 kts | 91° |
| 2026-05-01 10:46 | 37.18888 | -3.74329 | 3102 ft | 153 kts | 90° |
| 2026-05-01 10:46 | 37.18898 | -3.72924 | 3410 ft | 172 kts | 90° |
| 2026-05-01 10:47 | 37.18910 | -3.71326 | 3704 ft | 194 kts | 90° |
| 2026-05-01 10:47 | 37.18922 | -3.69532 | 3991 ft | 217 kts | 90° |
| 2026-05-01 10:47 | 37.18928 | -3.67528 | 4300 ft | 242 kts | 93° |
| 2026-05-01 10:47 | 37.18609 | -3.65429 | 5013 ft | 249 kts | 112° |
| 2026-05-01 10:48 | 37.17772 | -3.63539 | 5844 ft | 249 kts | 131° |
| 2026-05-01 10:48 | 37.16494 | -3.62083 | 6690 ft | 249 kts | 149° |
| 2026-05-01 10:48 | 37.14909 | -3.61215 | 7475 ft | 251 kts | 168° |
| 2026-05-01 10:48 | 37.13172 | -3.61039 | 8279 ft | 252 kts | 187° |
| 2026-05-01 10:49 | 37.11472 | -3.61576 | 9085 ft | 254 kts | 205° |
| 2026-05-01 10:49 | 37.09992 | -3.62788 | 9885 ft | 257 kts | 223° |
| 2026-05-01 10:49 | 37.08900 | -3.64560 | 10639 ft | 260 kts | 242° |
| 2026-05-01 10:49 | 37.08326 | -3.66719 | 11373 ft | 264 kts | 261° |
| 2026-05-01 10:50 | 37.08272 | -3.69031 | 12117 ft | 268 kts | 271° |
| 2026-05-01 10:50 | 37.08679 | -3.71313 | 12845 ft | 274 kts | 291° |
| 2026-05-01 10:50 | 37.09607 | -3.73458 | 13299 ft | 291 kts | 299° |
| 2026-05-01 10:50 | 37.10648 | -3.75743 | 13449 ft | 313 kts | 294° |
| 2026-05-01 10:51 | 37.11570 | -3.78281 | 13596 ft | 334 kts | 290° |
| 2026-05-01 10:51 | 37.12467 | -3.81063 | 13728 ft | 354 kts | 289° |
| 2026-05-01 10:51 | 37.13385 | -3.84023 | 13977 ft | 370 kts | 289° |
| 2026-05-01 10:51 | 37.14331 | -3.87048 | 14463 ft | 375 kts | 289° |
| 2026-05-01 10:52 | 37.15310 | -3.90104 | 15005 ft | 379 kts | 290° |
| 2026-05-01 10:52 | 37.16321 | -3.93180 | 15525 ft | 383 kts | 290° |
| 2026-05-01 10:52 | 37.17315 | -3.96296 | 16055 ft | 385 kts | 285° |
| 2026-05-01 10:52 | 37.17862 | -3.99579 | 16586 ft | 386 kts | 273° |
| 2026-05-01 10:53 | 37.17816 | -4.02935 | 17114 ft | 387 kts | 261° |
| 2026-05-01 10:53 | 37.17379 | -4.06280 | 17656 ft | 389 kts | 259° |
| 2026-05-01 10:53 | 37.16929 | -4.09640 | 18204 ft | 393 kts | 259° |
| 2026-05-01 10:53 | 37.16476 | -4.13036 | 18718 ft | 396 kts | 259° |
| 2026-05-01 10:54 | 37.16023 | -4.16451 | 19216 ft | 398 kts | 259° |
| 2026-05-01 10:54 | 37.15572 | -4.19883 | 19711 ft | 400 kts | 259° |
| 2026-05-01 10:54 | 37.15117 | -4.23346 | 20213 ft | 403 kts | 259° |
| 2026-05-01 10:54 | 37.14659 | -4.26814 | 20713 ft | 405 kts | 259° |
| 2026-05-01 10:55 | 37.14194 | -4.30309 | 21189 ft | 407 kts | 259° |
| 2026-05-01 10:55 | 37.13726 | -4.33826 | 21657 ft | 410 kts | 259° |
| 2026-05-01 10:55 | 37.13256 | -4.37354 | 22105 ft | 412 kts | 258° |
| 2026-05-01 10:55 | 37.12780 | -4.40909 | 22565 ft | 414 kts | 258° |
| 2026-05-01 10:56 | 37.12299 | -4.44476 | 22987 ft | 417 kts | 258° |
| 2026-05-01 10:56 | 37.11814 | -4.48069 | 23419 ft | 419 kts | 258° |
| 2026-05-01 10:56 | 37.11329 | -4.51675 | 23823 ft | 421 kts | 258° |
| 2026-05-01 10:56 | 37.10840 | -4.55300 | 24179 ft | 423 kts | 258° |
| 2026-05-01 10:57 | 37.10345 | -4.58947 | 24532 ft | 425 kts | 258° |
| 2026-05-01 10:57 | 37.09845 | -4.62606 | 24891 ft | 427 kts | 258° |
| 2026-05-01 10:57 | 37.09342 | -4.66278 | 25245 ft | 429 kts | 258° |
| 2026-05-01 10:57 | 37.08838 | -4.69963 | 25607 ft | 431 kts | 258° |
| 2026-05-01 10:58 | 37.08333 | -4.73669 | 25962 ft | 433 kts | 258° |
| 2026-05-01 10:58 | 37.07822 | -4.77394 | 26305 ft | 435 kts | 258° |
| 2026-05-01 10:58 | 37.07306 | -4.81133 | 26646 ft | 437 kts | 258° |
| 2026-05-01 10:58 | 37.06784 | -4.84880 | 27099 ft | 435 kts | 258° |
| 2026-05-01 10:59 | 37.06236 | -4.88598 | 27598 ft | 433 kts | 254° |
| 2026-05-01 10:59 | 37.05305 | -4.92170 | 28074 ft | 429 kts | 245° |
| 2026-05-01 10:59 | 37.03916 | -4.95458 | 28554 ft | 426 kts | 235° |
| 2026-05-01 10:59 | 37.02113 | -4.98391 | 28881 ft | 428 kts | 226° |
| 2026-05-01 11:00 | 37.00024 | -5.01088 | 29012 ft | 434 kts | 225° |
| 2026-05-01 11:00 | 36.97899 | -5.03808 | 29153 ft | 440 kts | 225° |
| 2026-05-01 11:00 | 36.96475 | -5.05632 | 29244 ft | 444 kts | 225° |
| 2026-05-01 11:00 | 36.94307 | -5.08416 | 29404 ft | 449 kts | 225° |
| 2026-05-01 11:01 | 36.91413 | -5.12134 | 29865 ft | 451 kts | 225° |
| 2026-05-01 11:01 | 36.89228 | -5.14941 | 30306 ft | 450 kts | 225° |
| 2026-05-01 11:01 | 36.87756 | -5.16833 | 30582 ft | 449 kts | 225° |
| 2026-05-01 11:01 | 36.85574 | -5.19631 | 30979 ft | 448 kts | 225° |
| 2026-05-01 11:02 | 36.83396 | -5.22416 | 31367 ft | 447 kts | 225° |
| 2026-05-01 11:02 | 36.81221 | -5.25195 | 31762 ft | 447 kts | 224° |
| 2026-05-01 11:02 | 36.79050 | -5.27967 | 32152 ft | 446 kts | 224° |
| 2026-05-01 11:02 | 36.76883 | -5.30729 | 32541 ft | 445 kts | 224° |
| 2026-05-01 11:03 | 36.74711 | -5.33494 | 32938 ft | 444 kts | 224° |
| 2026-05-01 11:03 | 36.72553 | -5.36240 | 33358 ft | 443 kts | 224° |
| 2026-05-01 11:03 | 36.70397 | -5.38984 | 33752 ft | 442 kts | 224° |
| 2026-05-01 11:03 | 36.68269 | -5.41688 | 34134 ft | 442 kts | 224° |
| 2026-05-01 11:04 | 36.66117 | -5.44419 | 34474 ft | 441 kts | 224° |
| 2026-05-01 11:04 | 36.63944 | -5.47175 | 34831 ft | 440 kts | 224° |
| 2026-05-01 11:04 | 36.61800 | -5.49895 | 35089 ft | 440 kts | 224° |
| 2026-05-01 11:05 | 36.57542 | -5.55290 | 35159 ft | 439 kts | 224° |
| 2026-05-01 11:05 | 36.53265 | -5.60701 | 35156 ft | 438 kts | 224° |
| 2026-05-01 11:06 | 36.48988 | -5.66098 | 35164 ft | 438 kts | 224° |
| 2026-05-01 11:06 | 36.44710 | -5.71487 | 35154 ft | 437 kts | 224° |
| 2026-05-01 11:07 | 36.38296 | -5.79553 | 35162 ft | 437 kts | 224° |
| 2026-05-01 11:07 | 36.34016 | -5.84926 | 35175 ft | 437 kts | 224° |
| 2026-05-01 11:08 | 36.29733 | -5.90287 | 35179 ft | 437 kts | 224° |
| 2026-05-01 11:09 | 36.23396 | -5.98413 | 35188 ft | 437 kts | 231° |
| 2026-05-01 11:09 | 36.19727 | -6.04423 | 35189 ft | 437 kts | 232° |
| 2026-05-01 11:10 | 36.14271 | -6.13287 | 35195 ft | 437 kts | 232° |
| 2026-05-01 11:10 | 36.10579 | -6.19264 | 35196 ft | 437 kts | 232° |
| 2026-05-01 11:11 | 36.06898 | -6.25236 | 35198 ft | 436 kts | 232° |
| 2026-05-01 11:11 | 36.03221 | -6.31202 | 35200 ft | 436 kts | 232° |
| 2026-05-01 11:12 | 35.99537 | -6.37158 | 35201 ft | 436 kts | 232° |
| 2026-05-01 11:12 | 35.95852 | -6.43109 | 35195 ft | 435 kts | 232° |
| 2026-05-01 11:13 | 35.92165 | -6.49039 | 35190 ft | 435 kts | 232° |
| 2026-05-01 11:13 | 35.88480 | -6.54958 | 35183 ft | 435 kts | 232° |
| 2026-05-01 11:14 | 35.85058 | -6.61093 | 35184 ft | 435 kts | 243° |
| 2026-05-01 11:14 | 35.83411 | -6.68247 | 35185 ft | 438 kts | 263° |
| 2026-05-01 11:15 | 35.83370 | -6.75783 | 35189 ft | 440 kts | 268° |
| 2026-05-01 11:15 | 35.83391 | -6.83322 | 35186 ft | 440 kts | 268° |
| 2026-05-01 11:16 | 35.83390 | -6.90876 | 35194 ft | 440 kts | 268° |
| 2026-05-01 11:16 | 35.83390 | -6.98418 | 35197 ft | 440 kts | 268° |
| 2026-05-01 11:17 | 35.83391 | -7.05969 | 35200 ft | 441 kts | 268° |
| 2026-05-01 11:17 | 35.83385 | -7.13524 | 35200 ft | 440 kts | 268° |
| 2026-05-01 11:18 | 35.83377 | -7.21067 | 35205 ft | 440 kts | 268° |
| 2026-05-01 11:18 | 35.83364 | -7.28607 | 35208 ft | 440 kts | 268° |
| 2026-05-01 11:19 | 35.83101 | -7.36114 | 35210 ft | 437 kts | 257° |
| 2026-05-01 11:19 | 35.80886 | -7.43000 | 35209 ft | 434 kts | 236° |
| 2026-05-01 11:20 | 35.76720 | -7.48356 | 35206 ft | 436 kts | 221° |
| 2026-05-01 11:20 | 35.72021 | -7.53079 | 35200 ft | 436 kts | 221° |
| 2026-05-01 11:21 | 35.67310 | -7.57799 | 35199 ft | 437 kts | 221° |
| 2026-05-01 11:21 | 35.64987 | -7.60131 | 34989 ft | 435 kts | 226° |
| 2026-05-01 11:21 | 35.62661 | -7.62463 | 35158 ft | 428 kts | 225° |
| 2026-05-01 11:22 | 35.58069 | -7.67070 | 35193 ft | 425 kts | 225° |
| 2026-05-01 11:22 | 35.53499 | -7.71668 | 35197 ft | 424 kts | 225° |
| 2026-05-01 11:23 | 35.48926 | -7.76263 | 35196 ft | 425 kts | 225° |
| 2026-05-01 11:23 | 35.44341 | -7.80840 | 35193 ft | 425 kts | 225° |
| 2026-05-01 11:24 | 35.39749 | -7.85416 | 35196 ft | 425 kts | 225° |
| 2026-05-01 11:25 | 35.32841 | -7.92273 | 35192 ft | 426 kts | 225° |
| 2026-05-01 11:25 | 35.25925 | -7.99136 | 35186 ft | 426 kts | 225° |
| 2026-05-01 11:26 | 35.19004 | -8.05999 | 35186 ft | 427 kts | 224° |
| 2026-05-01 11:27 | 35.14384 | -8.10574 | 35189 ft | 428 kts | 224° |
| 2026-05-01 11:27 | 35.09750 | -8.15148 | 35190 ft | 428 kts | 224° |
| 2026-05-01 11:28 | 35.05115 | -8.19715 | 35189 ft | 428 kts | 224° |
| 2026-05-01 11:28 | 35.00476 | -8.24292 | 35191 ft | 429 kts | 224° |
| 2026-05-01 11:29 | 34.93511 | -8.31141 | 35193 ft | 429 kts | 224° |
| 2026-05-01 11:30 | 34.86535 | -8.37975 | 35193 ft | 429 kts | 224° |
| 2026-05-01 11:30 | 34.81875 | -8.42529 | 35192 ft | 429 kts | 224° |
| 2026-05-01 11:31 | 34.77520 | -8.46780 | 35196 ft | 429 kts | 224° |
| 2026-05-01 11:31 | 34.72899 | -8.51287 | 35198 ft | 419 kts | 224° |
| 2026-05-01 11:32 | 34.68362 | -8.55702 | 35199 ft | 417 kts | 224° |
| 2026-05-01 11:32 | 34.63830 | -8.60104 | 35198 ft | 417 kts | 224° |
| 2026-05-01 11:33 | 34.59302 | -8.64508 | 35199 ft | 417 kts | 224° |
| 2026-05-01 11:33 | 34.54775 | -8.68907 | 35199 ft | 417 kts | 223° |
| 2026-05-01 11:34 | 34.51012 | -8.72555 | 35196 ft | 417 kts | 223° |
| 2026-05-01 11:34 | 34.46476 | -8.76947 | 35193 ft | 417 kts | 223° |
| 2026-05-01 11:35 | 34.41930 | -8.81338 | 35191 ft | 417 kts | 223° |
| 2026-05-01 11:35 | 34.37389 | -8.85704 | 35198 ft | 417 kts | 223° |
| 2026-05-01 11:36 | 34.32843 | -8.90073 | 35194 ft | 417 kts | 223° |
| 2026-05-01 11:36 | 34.28300 | -8.94434 | 35195 ft | 417 kts | 223° |
| 2026-05-01 11:37 | 34.23752 | -8.98783 | 35193 ft | 417 kts | 223° |
| 2026-05-01 11:37 | 34.19201 | -9.03130 | 35191 ft | 417 kts | 223° |
| 2026-05-01 11:38 | 34.14652 | -9.07481 | 35190 ft | 417 kts | 223° |
| 2026-05-01 11:38 | 34.10101 | -9.11823 | 35191 ft | 417 kts | 223° |
| 2026-05-01 11:39 | 34.05552 | -9.16159 | 35186 ft | 417 kts | 223° |
| 2026-05-01 11:39 | 34.00999 | -9.20494 | 35186 ft | 417 kts | 223° |
| 2026-05-01 11:40 | 33.96447 | -9.24819 | 35187 ft | 417 kts | 223° |
| 2026-05-01 11:40 | 33.91883 | -9.29139 | 35185 ft | 417 kts | 223° |
| 2026-05-01 11:41 | 33.87324 | -9.33457 | 35187 ft | 417 kts | 223° |
| 2026-05-01 11:41 | 33.82761 | -9.37774 | 35186 ft | 417 kts | 223° |
| 2026-05-01 11:42 | 33.78197 | -9.42084 | 35182 ft | 417 kts | 223° |
| 2026-05-01 11:42 | 33.73631 | -9.46389 | 35179 ft | 417 kts | 223° |
| 2026-05-01 11:43 | 33.69064 | -9.50696 | 35174 ft | 417 kts | 223° |
| 2026-05-01 11:43 | 33.64494 | -9.55002 | 35178 ft | 417 kts | 223° |
| 2026-05-01 11:44 | 33.57631 | -9.61438 | 35181 ft | 417 kts | 222° |
| 2026-05-01 11:44 | 33.53047 | -9.65732 | 35173 ft | 417 kts | 223° |
| 2026-05-01 11:45 | 33.48474 | -9.70022 | 35173 ft | 417 kts | 223° |
| 2026-05-01 11:45 | 33.43893 | -9.74298 | 35183 ft | 418 kts | 223° |
| 2026-05-01 11:46 | 33.39308 | -9.78576 | 35184 ft | 418 kts | 223° |
| 2026-05-01 11:46 | 33.34728 | -9.82854 | 35181 ft | 418 kts | 223° |
| 2026-05-01 11:47 | 33.30145 | -9.87121 | 35182 ft | 418 kts | 223° |
| 2026-05-01 11:47 | 33.25554 | -9.91388 | 35184 ft | 417 kts | 223° |
| 2026-05-01 11:48 | 33.20972 | -9.95656 | 35183 ft | 418 kts | 223° |
| 2026-05-01 11:48 | 33.16376 | -9.99907 | 35183 ft | 418 kts | 223° |
| 2026-05-01 11:49 | 33.11781 | -10.04162 | 35182 ft | 418 kts | 223° |
| 2026-05-01 11:49 | 33.07188 | -10.08405 | 35183 ft | 418 kts | 223° |
| 2026-05-01 11:50 | 33.02585 | -10.12647 | 35185 ft | 418 kts | 223° |
| 2026-05-01 11:50 | 32.97982 | -10.16886 | 35183 ft | 418 kts | 222° |
| 2026-05-01 11:51 | 32.93382 | -10.21115 | 35181 ft | 418 kts | 223° |
| 2026-05-01 11:51 | 32.88780 | -10.25351 | 35179 ft | 418 kts | 223° |
| 2026-05-01 11:52 | 32.84207 | -10.29550 | 35179 ft | 418 kts | 222° |
| 2026-05-01 11:52 | 32.79591 | -10.33773 | 35179 ft | 418 kts | 222° |
| 2026-05-01 11:53 | 32.74949 | -10.38018 | 35181 ft | 418 kts | 222° |
| 2026-05-01 11:53 | 32.70337 | -10.42241 | 35177 ft | 419 kts | 222° |
| 2026-05-01 11:54 | 32.65720 | -10.46454 | 35177 ft | 419 kts | 222° |
| 2026-05-01 11:54 | 32.61088 | -10.50669 | 35179 ft | 419 kts | 222° |
| 2026-05-01 11:55 | 32.56461 | -10.54874 | 35180 ft | 419 kts | 222° |
| 2026-05-01 11:55 | 32.51826 | -10.59085 | 35177 ft | 419 kts | 222° |
| 2026-05-01 11:56 | 32.47192 | -10.63285 | 35174 ft | 420 kts | 222° |
| 2026-05-01 11:56 | 32.42554 | -10.67489 | 35175 ft | 420 kts | 222° |
| 2026-05-01 11:57 | 32.37908 | -10.71708 | 35176 ft | 420 kts | 222° |
| 2026-05-01 11:57 | 32.33262 | -10.75911 | 35176 ft | 421 kts | 222° |
| 2026-05-01 11:58 | 32.28609 | -10.80109 | 35176 ft | 421 kts | 222° |
| 2026-05-01 11:59 | 32.21616 | -10.86413 | 35178 ft | 421 kts | 222° |
| 2026-05-01 11:59 | 32.16946 | -10.90610 | 35182 ft | 422 kts | 222° |
| 2026-05-01 12:00 | 32.09937 | -10.96893 | 35181 ft | 422 kts | 221° |
| 2026-05-01 12:01 | 32.02921 | -11.03184 | 35182 ft | 422 kts | 221° |
| 2026-05-01 12:01 | 31.98232 | -11.07377 | 35187 ft | 423 kts | 221° |
| 2026-05-01 12:02 | 31.93543 | -11.11577 | 35183 ft | 423 kts | 221° |
| 2026-05-01 12:02 | 31.88852 | -11.15767 | 35188 ft | 423 kts | 221° |
| 2026-05-01 12:03 | 31.84144 | -11.19945 | 35180 ft | 424 kts | 221° |
| 2026-05-01 12:03 | 31.79440 | -11.24125 | 35181 ft | 424 kts | 221° |
| 2026-05-01 12:04 | 31.74734 | -11.28317 | 35186 ft | 424 kts | 221° |
| 2026-05-01 12:04 | 31.70038 | -11.32512 | 35182 ft | 424 kts | 221° |
| 2026-05-01 12:05 | 31.65335 | -11.36715 | 35187 ft | 424 kts | 221° |
| 2026-05-01 12:05 | 31.58279 | -11.43007 | 35183 ft | 425 kts | 221° |
| 2026-05-01 12:06 | 31.54354 | -11.46486 | 35178 ft | 425 kts | 221° |
| 2026-05-01 12:06 | 31.49631 | -11.50658 | 35178 ft | 425 kts | 221° |
| 2026-05-01 12:07 | 31.44910 | -11.54842 | 35178 ft | 426 kts | 221° |
| 2026-05-01 12:07 | 31.40188 | -11.59036 | 35180 ft | 426 kts | 221° |
| 2026-05-01 12:08 | 31.35460 | -11.63221 | 35175 ft | 426 kts | 221° |
| 2026-05-01 12:08 | 31.30721 | -11.67400 | 35171 ft | 426 kts | 221° |
| 2026-05-01 12:09 | 31.25983 | -11.71566 | 35175 ft | 426 kts | 221° |
| 2026-05-01 12:09 | 31.21242 | -11.75731 | 35174 ft | 426 kts | 221° |
| 2026-05-01 12:10 | 31.14135 | -11.81990 | 35176 ft | 427 kts | 221° |
| 2026-05-01 12:11 | 31.07007 | -11.88252 | 35177 ft | 427 kts | 221° |
| 2026-05-01 12:11 | 31.02247 | -11.92415 | 35182 ft | 427 kts | 221° |
| 2026-05-01 12:12 | 30.97482 | -11.96574 | 35183 ft | 427 kts | 221° |
| 2026-05-01 12:12 | 30.92719 | -12.00731 | 35180 ft | 428 kts | 221° |
| 2026-05-01 12:13 | 30.87955 | -12.04897 | 35184 ft | 428 kts | 221° |
| 2026-05-01 12:13 | 30.83190 | -12.09058 | 35179 ft | 428 kts | 221° |
| 2026-05-01 12:14 | 30.78420 | -12.13210 | 35179 ft | 428 kts | 220° |
| 2026-05-01 12:14 | 30.73636 | -12.17366 | 35184 ft | 429 kts | 220° |
| 2026-05-01 12:15 | 30.68852 | -12.21526 | 35184 ft | 429 kts | 220° |
| 2026-05-01 12:15 | 30.64067 | -12.25673 | 35187 ft | 429 kts | 220° |
| 2026-05-01 12:16 | 30.59273 | -12.29816 | 35189 ft | 430 kts | 220° |
| 2026-05-01 12:16 | 30.54480 | -12.33964 | 35193 ft | 430 kts | 220° |
| 2026-05-01 12:17 | 30.49687 | -12.38103 | 35192 ft | 430 kts | 220° |
| 2026-05-01 12:17 | 30.44876 | -12.42232 | 35191 ft | 430 kts | 220° |
| 2026-05-01 12:18 | 30.40066 | -12.46363 | 35193 ft | 430 kts | 220° |
| 2026-05-01 12:18 | 30.35256 | -12.50492 | 35196 ft | 430 kts | 220° |
| 2026-05-01 12:19 | 30.30446 | -12.54616 | 35194 ft | 430 kts | 220° |
| 2026-05-01 12:19 | 30.25637 | -12.58738 | 35193 ft | 430 kts | 220° |
| 2026-05-01 12:20 | 30.20827 | -12.62850 | 35189 ft | 430 kts | 220° |
| 2026-05-01 12:20 | 30.16006 | -12.66956 | 35187 ft | 430 kts | 220° |
| 2026-05-01 12:21 | 30.11201 | -12.71084 | 35197 ft | 429 kts | 223° |
| 2026-05-01 12:21 | 30.07083 | -12.76012 | 35194 ft | 426 kts | 231° |
| 2026-05-01 12:22 | 30.03121 | -12.81133 | 34578 ft | 429 kts | 230° |
| 2026-05-01 12:22 | 30.01128 | -12.83699 | 33850 ft | 431 kts | 230° |
| 2026-05-01 12:22 | 29.99120 | -12.86284 | 32984 ft | 434 kts | 230° |
| 2026-05-01 12:23 | 29.97100 | -12.88883 | 32147 ft | 437 kts | 230° |
| 2026-05-01 12:23 | 29.95064 | -12.91500 | 31336 ft | 439 kts | 230° |
| 2026-05-01 12:23 | 29.93017 | -12.94133 | 30548 ft | 445 kts | 230° |
| 2026-05-01 12:23 | 29.90825 | -12.96695 | 29685 ft | 452 kts | 221° |
| 2026-05-01 12:24 | 29.88172 | -12.98686 | 28796 ft | 459 kts | 208° |
| 2026-05-01 12:24 | 29.85172 | -13.00011 | 27931 ft | 464 kts | 201° |
| 2026-05-01 12:24 | 29.82113 | -13.01197 | 27096 ft | 465 kts | 201° |
| 2026-05-01 12:24 | 29.79043 | -13.02379 | 26290 ft | 465 kts | 201° |
| 2026-05-01 12:25 | 29.75971 | -13.03560 | 25490 ft | 466 kts | 201° |
| 2026-05-01 12:25 | 29.69816 | -13.05925 | 23982 ft | 466 kts | 201° |
| 2026-05-01 12:25 | 29.66737 | -13.07113 | 23139 ft | 466 kts | 201° |
| 2026-05-01 12:26 | 29.63680 | -13.08296 | 22281 ft | 461 kts | 201° |
| 2026-05-01 12:26 | 29.57670 | -13.10619 | 20641 ft | 450 kts | 201° |
| 2026-05-01 12:26 | 29.54716 | -13.11758 | 19851 ft | 445 kts | 201° |
| 2026-05-01 12:27 | 29.51795 | -13.12885 | 19087 ft | 440 kts | 201° |
| 2026-05-01 12:27 | 29.46050 | -13.15097 | 17464 ft | 431 kts | 200° |
| 2026-05-01 12:28 | 29.40413 | -13.17258 | 15826 ft | 423 kts | 200° |
| 2026-05-01 12:28 | 29.37629 | -13.18326 | 15040 ft | 420 kts | 200° |
| 2026-05-01 12:28 | 29.32093 | -13.20310 | 13463 ft | 414 kts | 197° |
| 2026-05-01 12:29 | 29.29323 | -13.21183 | 12634 ft | 411 kts | 196° |
| 2026-05-01 12:29 | 29.26571 | -13.22019 | 11815 ft | 407 kts | 196° |
| 2026-05-01 12:29 | 29.21308 | -13.23638 | 10465 ft | 368 kts | 196° |
| 2026-05-01 12:30 | 29.16786 | -13.25152 | 10184 ft | 309 kts | 197° |
| 2026-05-01 12:30 | 29.14801 | -13.25832 | 10195 ft | 291 kts | 197° |
| 2026-05-01 12:30 | 29.12889 | -13.26486 | 10196 ft | 279 kts | 197° |
| 2026-05-01 12:31 | 29.11091 | -13.27098 | 10028 ft | 263 kts | 197° |
| 2026-05-01 12:31 | 29.09370 | -13.27681 | 9731 ft | 253 kts | 197° |
| 2026-05-01 12:31 | 29.07689 | -13.28250 | 9469 ft | 251 kts | 197° |
| 2026-05-01 12:31 | 29.06015 | -13.28815 | 9211 ft | 250 kts | 197° |
| 2026-05-01 12:32 | 29.04340 | -13.29380 | 8968 ft | 249 kts | 197° |
| 2026-05-01 12:32 | 29.01025 | -13.30495 | 8469 ft | 248 kts | 197° |
| 2026-05-01 12:32 | 28.99371 | -13.31051 | 8258 ft | 247 kts | 197° |
| 2026-05-01 12:33 | 28.97743 | -13.31600 | 8175 ft | 239 kts | 198° |
| 2026-05-01 12:33 | 28.96179 | -13.32168 | 7995 ft | 233 kts | 199° |
| 2026-05-01 12:33 | 28.94662 | -13.32747 | 7898 ft | 226 kts | 200° |
| 2026-05-01 12:33 | 28.93179 | -13.33320 | 7855 ft | 224 kts | 200° |
| 2026-05-01 12:34 | 28.91685 | -13.33824 | 7800 ft | 225 kts | 191° |
| 2026-05-01 12:34 | 28.90123 | -13.33918 | 7755 ft | 225 kts | 176° |
| 2026-05-01 12:34 | 28.88643 | -13.33555 | 7726 ft | 210 kts | 162° |
| 2026-05-01 12:34 | 28.87329 | -13.32865 | 7676 ft | 207 kts | 155° |
| 2026-05-01 12:35 | 28.86056 | -13.32145 | 7624 ft | 206 kts | 155° |
| 2026-05-01 12:35 | 28.84769 | -13.31424 | 7579 ft | 206 kts | 155° |
| 2026-05-01 12:35 | 28.83465 | -13.30694 | 7528 ft | 206 kts | 155° |
| 2026-05-01 12:35 | 28.82179 | -13.29974 | 7479 ft | 206 kts | 155° |
| 2026-05-01 12:36 | 28.80893 | -13.29253 | 7430 ft | 206 kts | 155° |
| 2026-05-01 12:36 | 28.79610 | -13.28535 | 7386 ft | 205 kts | 155° |
| 2026-05-01 12:36 | 28.78303 | -13.27939 | 7339 ft | 205 kts | 161° |
| 2026-05-01 12:36 | 28.77075 | -13.27140 | 7285 ft | 206 kts | 131° |
| 2026-05-01 12:37 | 28.76622 | -13.25621 | 7246 ft | 208 kts | 84° |
| 2026-05-01 12:37 | 28.77188 | -13.24139 | 7192 ft | 207 kts | 45° |
| 2026-05-01 12:37 | 28.78428 | -13.23343 | 7144 ft | 204 kts | 7° |
| 2026-05-01 12:37 | 28.79793 | -13.23565 | 7092 ft | 199 kts | 330° |
| 2026-05-01 12:38 | 28.80909 | -13.24487 | 7050 ft | 199 kts | 325° |
| 2026-05-01 12:38 | 28.82237 | -13.24902 | 7002 ft | 202 kts | 355° |
| 2026-05-01 12:38 | 28.83590 | -13.25218 | 6962 ft | 198 kts | 326° |
| 2026-05-01 12:38 | 28.84211 | -13.25956 | 6946 ft | 196 kts | 295° |
| 2026-05-01 12:39 | 28.84343 | -13.27545 | 6927 ft | 213 kts | 257° |
| 2026-05-01 12:39 | 28.83747 | -13.29109 | 6901 ft | 218 kts | 236° |
| 2026-05-01 12:39 | 28.82654 | -13.30306 | 6884 ft | 225 kts | 210° |
| 2026-05-01 12:39 | 28.81079 | -13.30717 | 6841 ft | 242 kts | 175° |
| 2026-05-01 12:40 | 28.79396 | -13.30408 | 6814 ft | 246 kts | 172° |
| 2026-05-01 12:40 | 28.77696 | -13.30150 | 6790 ft | 247 kts | 175° |
| 2026-05-01 12:40 | 28.75988 | -13.29930 | 6765 ft | 247 kts | 175° |
| 2026-05-01 12:40 | 28.74281 | -13.29716 | 6745 ft | 247 kts | 175° |
| 2026-05-01 12:41 | 28.72567 | -13.29497 | 6715 ft | 247 kts | 175° |
| 2026-05-01 12:41 | 28.70859 | -13.29273 | 6699 ft | 247 kts | 174° |
| 2026-05-01 12:41 | 28.69150 | -13.29043 | 6676 ft | 247 kts | 174° |
| 2026-05-01 12:41 | 28.67458 | -13.29147 | 6651 ft | 243 kts | 203° |
| 2026-05-01 12:42 | 28.66184 | -13.30337 | 6619 ft | 239 kts | 242° |
| 2026-05-01 12:42 | 28.65867 | -13.32148 | 6597 ft | 237 kts | 279° |
| 2026-05-01 12:42 | 28.66301 | -13.33940 | 6585 ft | 238 kts | 287° |
| 2026-05-01 12:42 | 28.66800 | -13.35741 | 6560 ft | 239 kts | 287° |
| 2026-05-01 12:43 | 28.67302 | -13.37546 | 6535 ft | 239 kts | 287° |
| 2026-05-01 12:43 | 28.67802 | -13.39356 | 6511 ft | 239 kts | 287° |
| 2026-05-01 12:43 | 28.68300 | -13.41162 | 6482 ft | 239 kts | 287° |
| 2026-05-01 12:43 | 28.68804 | -13.42966 | 6460 ft | 239 kts | 290° |
| 2026-05-01 12:44 | 28.69449 | -13.44710 | 6425 ft | 239 kts | 292° |
| 2026-05-01 12:44 | 28.70099 | -13.46451 | 6406 ft | 239 kts | 292° |
| 2026-05-01 12:44 | 28.71393 | -13.49931 | 6041 ft | 237 kts | 292° |
| 2026-05-01 12:45 | 28.72670 | -13.53385 | 5545 ft | 236 kts | 293° |
| 2026-05-01 12:45 | 28.73307 | -13.55109 | 5295 ft | 236 kts | 293° |
| 2026-05-01 12:45 | 28.73945 | -13.56836 | 5052 ft | 236 kts | 294° |
| 2026-05-01 12:46 | 28.74583 | -13.58562 | 4802 ft | 236 kts | 294° |
| 2026-05-01 12:46 | 28.75220 | -13.60289 | 4558 ft | 236 kts | 294° |
| 2026-05-01 12:46 | 28.75854 | -13.62013 | 4303 ft | 235 kts | 294° |
| 2026-05-01 12:46 | 28.76486 | -13.63729 | 4055 ft | 235 kts | 294° |
| 2026-05-01 12:47 | 28.77116 | -13.65438 | 3805 ft | 232 kts | 294° |
| 2026-05-01 12:47 | 28.77732 | -13.67105 | 3555 ft | 222 kts | 296° |
| 2026-05-01 12:47 | 28.78644 | -13.68425 | 3255 ft | 209 kts | 331° |
| 2026-05-01 12:47 | 28.79994 | -13.68768 | 2999 ft | 195 kts | 8° |
| 2026-05-01 12:48 | 28.81207 | -13.68256 | 2770 ft | 180 kts | 26° |
| 2026-05-01 12:48 | 28.82282 | -13.67629 | 2529 ft | 168 kts | 27° |
| 2026-05-01 12:48 | 28.83305 | -13.67034 | 2326 ft | 163 kts | 26° |
| 2026-05-01 12:48 | 28.84313 | -13.66451 | 2100 ft | 162 kts | 26° |
| 2026-05-01 12:49 | 28.85310 | -13.65873 | 1887 ft | 161 kts | 26° |
| 2026-05-01 12:49 | 28.86308 | -13.65296 | 1665 ft | 161 kts | 27° |
| 2026-05-01 12:49 | 28.87300 | -13.64721 | 1450 ft | 160 kts | 27° |
| 2026-05-01 12:49 | 28.88278 | -13.64155 | 1238 ft | 152 kts | 27° |
| 2026-05-01 12:50 | 28.89191 | -13.63627 | 1048 ft | 144 kts | 27° |
| 2026-05-01 12:50 | 28.90077 | -13.63114 | 840 ft | 143 kts | 29° |
| 2026-05-01 12:50 | 28.90963 | -13.62600 | 658 ft | 142 kts | 29° |
| 2026-05-01 12:50 | 28.91845 | -13.62090 | 467 ft | 142 kts | 31° |
| 2026-05-01 12:51 | 28.92732 | -13.61582 | 282 ft | 142 kts | 31° |
| 2026-05-01 12:51 | 28.93620 | -13.61060 | 57 ft | 143 kts | 30° |
| 2026-05-01 12:51 | 28.94942 | -13.60282 | 46 ft | 61 kts | 27° |
| 2026-05-01 12:52 | 28.95185 | -13.60209 | 49 ft | 12 kts | 2° |
| 2026-05-01 12:52 | 28.95304 | -13.60217 | 48 ft | 10 kts | 341° |
| 2026-05-01 12:52 | 28.95311 | -13.60286 | 47 ft | 10 kts | 209° |
| 2026-05-01 12:53 | 28.95139 | -13.60387 | 50 ft | 17 kts | 206° |
| 2026-05-01 12:53 | 28.95135 | -13.60500 | 50 ft | 17 kts | 291° |
| 2026-05-01 12:53 | 28.95084 | -13.60577 | 50 ft | 13 kts | 223° |
| 2026-05-01 12:54 | 28.95026 | -13.60645 | 50 ft | 10 kts | 267° |
| 2026-05-01 12:54 | 28.95057 | -13.60727 | 50 ft | 0 kts | 296° |